Jennings, Louisiana
Current Conditions -  °F | °C
As of 1:55 PM on Monday 22 Dec 2014 (Local Time) from K3R7 Reporting Station
Scattered Clouds Scattered Clouds  
Wind Chill: 73°   Ceiling: Unl
Heat Index: 73°   Visibility: 10mi
Dew Point: 62°   Wind: 12mph
Humidity: 69%   Direction: 230°SW
Pressure: 29.67"   Gusts: 22mph
Location:  30.22°N, 92.66°W
Report Text: K3R7 221955Z AUTO 23010G19KT 10SM SCT031 SCT037 23/17 A2967 RMK AO2 T02250166
Loading
Personal Weather Stations






























Interactive Weather Map New forecast layout! Learn more

10-Day Weather Forecast

Advertisements
Track Severe Weather on mobile